This is the latest recevied weather packets stored in our database for station/object K4IR. If no packets are shown the sender has not sent any weather packets the latest 10 day(s).
| Time | Temp. | Humidity | Pressure | Rain* | Wind** | Luminosity | Snow |
|---|---|---|---|---|---|---|---|
| 1788204610 | 23.33° C | 94% | 1019 hPa | 19.3 mm | - | 60 W/m² | - |
| 1788204006 | 23.33° C | 93% | 1018.9 hPa | 14.99 mm | - | 45 W/m² | - |
| 1788203404 | 24.44° C | 91% | 1019.2 hPa | 10.67 mm | - | 32 W/m² | - |
| 1788202804 | 28.89° C | 80% | 1019.4 hPa | 0 mm | - | 21 W/m² | - |
| 1788202200 | 30° C | 78% | 1018.9 hPa | 0 mm | - | 142 W/m² | - |
| 1788201596 | 29.44° C | 77% | 1018.6 hPa | 0 mm | - | 185 W/m² | - |
| 1788200995 | 30° C | 76% | 1018.9 hPa | 0 mm | - | 252 W/m² | - |
| 1788200391 | 31.67° C | 71% | 1019.1 hPa | 0 mm | - | 190 W/m² | - |
| 1788199787 | 31.11° C | 70% | 1019.3 hPa | 0 mm | - | 233 W/m² | - |
| 1788199186 | 31.11° C | 70% | 1019.4 hPa | 0 mm | - | 802 W/m² | - |
| 1788198584 | 29.44° C | 76% | 1019.5 hPa | 0 mm | - | 476 W/m² | - |
| 1788197984 | 29.44° C | 79% | 1019.5 hPa | 0 mm | - | 93 W/m² | - |
| 1788197380 | 30° C | 74% | 1019.7 hPa | 0 mm | - | 141 W/m² | - |
| 1788196776 | 30° C | 74% | 1019.7 hPa | 0 mm | - | 134 W/m² | - |
| 1788196174 | 30.56° C | 68% | 1019.8 hPa | 0 mm | - | 133 W/m² | - |
| 1788195572 | 31.67° C | 69% | 1019.6 hPa | 0 mm | - | 177 W/m² | - |
| 1788194970 | 31.11° C | 70% | 1019.8 hPa | 0 mm | - | 812 W/m² | - |
| 1788194367 | 31.67° C | 67% | 1020.1 hPa | 0 mm | - | 811 W/m² | - |
| 1788193767 | 31.11° C | 69% | 1020.1 hPa | 0 mm | - | 782 W/m² | - |
| 1788193166 | 31.11° C | 71% | 1020.1 hPa | 0 mm | - | 811 W/m² | - |
| 1788192564 | 30.56° C | 70% | 1020.5 hPa | 0 mm | - | 760 W/m² | - |
| 1788191965 | 30° C | 74% | 1020.2 hPa | 0 mm | - | 753 W/m² | - |
| 1788191360 | 29.44° C | 73% | 1020.2 hPa | 0 mm | - | 671 W/m² | - |
| 1788190761 | 29.44° C | 74% | 1020.3 hPa | 0 mm | - | 729 W/m² | - |
| 1788190159 | 29.44° C | 77% | 1020.3 hPa | 0 mm | - | 91 W/m² | - |
* Rain latest hour (hover to see other rain measurements)
** Current wind speed in m/s (hover to see current wind gust speed)